sensor_id;sensor_type;location;lat;lon;timestamp;P1;durP1;ratioP1;P2;durP2;ratioP2
34725;SDS011;20951;50.818;4.344;2023-09-18T00:00:57;10.55;;;5.68;;
34725;SDS011;20951;50.818;4.344;2023-09-18T00:03:23;9.00;;;6.03;;
34725;SDS011;20951;50.818;4.344;2023-09-18T00:05:50;10.98;;;5.90;;
34725;SDS011;20951;50.818;4.344;2023-09-18T00:08:17;8.70;;;6.00;;
34725;SDS011;20951;50.818;4.344;2023-09-18T00:10:48;8.10;;;5.35;;
34725;SDS011;20951;50.818;4.344;2023-09-18T00:13:15;11.00;;;5.97;;
34725;SDS011;20951;50.818;4.344;2023-09-18T00:15:41;8.77;;;5.47;;
34725;SDS011;20951;50.818;4.344;2023-09-18T00:18:09;8.68;;;5.90;;
34725;SDS011;20951;50.818;4.344;2023-09-18T00:20:35;11.18;;;6.00;;
34725;SDS011;20951;50.818;4.344;2023-09-18T00:23:01;9.27;;;5.97;;
34725;SDS011;20951;50.818;4.344;2023-09-18T00:25:28;9.45;;;6.18;;
34725;SDS011;20951;50.818;4.344;2023-09-18T00:27:54;10.18;;;6.40;;
34725;SDS011;20951;50.818;4.344;2023-09-18T00:30:20;10.68;;;6.65;;
34725;SDS011;20951;50.818;4.344;2023-09-18T00:32:46;9.23;;;6.60;;
34725;SDS011;20951;50.818;4.344;2023-09-18T00:35:12;11.07;;;6.75;;
34725;SDS011;20951;50.818;4.344;2023-09-18T00:37:44;15.10;;;7.57;;
34725;SDS011;20951;50.818;4.344;2023-09-18T00:40:15;12.35;;;7.30;;
34725;SDS011;20951;50.818;4.344;2023-09-18T00:42:45;13.63;;;8.00;;
34725;SDS011;20951;50.818;4.344;2023-09-18T00:45:15;13.38;;;7.40;;
34725;SDS011;20951;50.818;4.344;2023-09-18T00:47:45;20.02;;;8.02;;
34725;SDS011;20951;50.818;4.344;2023-09-18T00:50:14;11.73;;;8.20;;
34725;SDS011;20951;50.818;4.344;2023-09-18T00:52:43;11.05;;;7.70;;
34725;SDS011;20951;50.818;4.344;2023-09-18T00:55:14;13.00;;;7.95;;
34725;SDS011;20951;50.818;4.344;2023-09-18T00:57:43;11.13;;;8.68;;
34725;SDS011;20951;50.818;4.344;2023-09-18T01:00:13;10.68;;;8.40;;
34725;SDS011;20951;50.818;4.344;2023-09-18T01:02:43;13.98;;;8.15;;
34725;SDS011;20951;50.818;4.344;2023-09-18T01:05:13;13.40;;;7.82;;
34725;SDS011;20951;50.818;4.344;2023-09-18T01:07:45;11.05;;;8.32;;
34725;SDS011;20951;50.818;4.344;2023-09-18T01:10:11;9.82;;;6.90;;
34725;SDS011;20951;50.818;4.344;2023-09-18T01:15:12;11.93;;;7.70;;
34725;SDS011;20951;50.818;4.344;2023-09-18T01:17:44;10.30;;;7.85;;
34725;SDS011;20951;50.818;4.344;2023-09-18T01:20:11;11.60;;;8.60;;
34725;SDS011;20951;50.818;4.344;2023-09-18T01:22:38;10.27;;;8.07;;
34725;SDS011;20951;50.818;4.344;2023-09-18T01:25:04;12.80;;;8.70;;
34725;SDS011;20951;50.818;4.344;2023-09-18T01:27:31;11.93;;;9.00;;
34725;SDS011;20951;50.818;4.344;2023-09-18T01:29:57;14.95;;;9.07;;
34725;SDS011;20951;50.818;4.344;2023-09-18T01:32:24;13.90;;;8.80;;
34725;SDS011;20951;50.818;4.344;2023-09-18T01:34:54;13.63;;;9.13;;
34725;SDS011;20951;50.818;4.344;2023-09-18T01:37:25;13.00;;;8.93;;
34725;SDS011;20951;50.818;4.344;2023-09-18T01:39:56;13.63;;;8.35;;
34725;SDS011;20951;50.818;4.344;2023-09-18T01:42:26;12.82;;;8.60;;
34725;SDS011;20951;50.818;4.344;2023-09-18T01:44:53;11.07;;;8.25;;
34725;SDS011;20951;50.818;4.344;2023-09-18T01:47:20;14.52;;;7.78;;
34725;SDS011;20951;50.818;4.344;2023-09-18T01:49:51;12.98;;;8.15;;
34725;SDS011;20951;50.818;4.344;2023-09-18T01:52:17;10.88;;;7.65;;
34725;SDS011;20951;50.818;4.344;2023-09-18T01:54:43;11.27;;;7.90;;
34725;SDS011;20951;50.818;4.344;2023-09-18T01:57:10;9.95;;;8.27;;
34725;SDS011;20951;50.818;4.344;2023-09-18T01:59:37;10.63;;;8.05;;
34725;SDS011;20951;50.818;4.344;2023-09-18T02:02:04;10.95;;;8.40;;
34725;SDS011;20951;50.818;4.344;2023-09-18T02:04:32;10.93;;;8.68;;
34725;SDS011;20951;50.818;4.344;2023-09-18T02:06:58;13.25;;;8.48;;
34725;SDS011;20951;50.818;4.344;2023-09-18T02:09:24;10.43;;;8.18;;
34725;SDS011;20951;50.818;4.344;2023-09-18T02:11:50;15.50;;;7.60;;
34725;SDS011;20951;50.818;4.344;2023-09-18T02:14:16;10.98;;;8.23;;
34725;SDS011;20951;50.818;4.344;2023-09-18T02:16:42;12.55;;;8.68;;
34725;SDS011;20951;50.818;4.344;2023-09-18T02:19:12;11.45;;;8.75;;
34725;SDS011;20951;50.818;4.344;2023-09-18T02:21:39;10.63;;;8.38;;
34725;SDS011;20951;50.818;4.344;2023-09-18T02:24:05;13.32;;;9.18;;
34725;SDS011;20951;50.818;4.344;2023-09-18T02:26:32;14.50;;;9.38;;
34725;SDS011;20951;50.818;4.344;2023-09-18T02:28:59;13.98;;;9.57;;
34725;SDS011;20951;50.818;4.344;2023-09-18T02:31:26;13.65;;;9.25;;
34725;SDS011;20951;50.818;4.344;2023-09-18T02:33:53;9.75;;;7.43;;
34725;SDS011;20951;50.818;4.344;2023-09-18T02:36:19;8.70;;;6.70;;
34725;SDS011;20951;50.818;4.344;2023-09-18T02:38:45;9.57;;;6.75;;
34725;SDS011;20951;50.818;4.344;2023-09-18T02:41:11;8.98;;;5.70;;
34725;SDS011;20951;50.818;4.344;2023-09-18T02:43:37;8.85;;;5.70;;
34725;SDS011;20951;50.818;4.344;2023-09-18T02:46:04;9.20;;;5.20;;
34725;SDS011;20951;50.818;4.344;2023-09-18T02:48:31;7.28;;;5.13;;
34725;SDS011;20951;50.818;4.344;2023-09-18T02:51:00;8.20;;;4.88;;
34725;SDS011;20951;50.818;4.344;2023-09-18T02:53:27;8.00;;;4.18;;
34725;SDS011;20951;50.818;4.344;2023-09-18T02:55:54;7.03;;;4.10;;
34725;SDS011;20951;50.818;4.344;2023-09-18T02:58:21;6.00;;;3.20;;
34725;SDS011;20951;50.818;4.344;2023-09-18T03:00:51;4.15;;;2.78;;
34725;SDS011;20951;50.818;4.344;2023-09-18T03:03:18;6.43;;;2.88;;
34725;SDS011;20951;50.818;4.344;2023-09-18T03:05:44;6.13;;;2.88;;
34725;SDS011;20951;50.818;4.344;2023-09-18T03:08:11;5.00;;;2.40;;
34725;SDS011;20951;50.818;4.344;2023-09-18T03:10:39;6.40;;;2.90;;
34725;SDS011;20951;50.818;4.344;2023-09-18T03:13:06;5.85;;;2.85;;
34725;SDS011;20951;50.818;4.344;2023-09-18T03:15:34;5.30;;;2.67;;
34725;SDS011;20951;50.818;4.344;2023-09-18T03:18:01;5.05;;;2.72;;
34725;SDS011;20951;50.818;4.344;2023-09-18T03:20:28;4.85;;;3.05;;
34725;SDS011;20951;50.818;4.344;2023-09-18T03:22:56;5.22;;;3.00;;
34725;SDS011;20951;50.818;4.344;2023-09-18T03:25:23;5.80;;;2.90;;
34725;SDS011;20951;50.818;4.344;2023-09-18T03:27:51;5.07;;;2.67;;
34725;SDS011;20951;50.818;4.344;2023-09-18T03:30:18;5.53;;;3.20;;
34725;SDS011;20951;50.818;4.344;2023-09-18T03:32:44;5.97;;;2.90;;
34725;SDS011;20951;50.818;4.344;2023-09-18T03:35:13;5.07;;;3.03;;
34725;SDS011;20951;50.818;4.344;2023-09-18T03:37:46;6.55;;;3.35;;
34725;SDS011;20951;50.818;4.344;2023-09-18T03:40:12;6.03;;;3.80;;
34725;SDS011;20951;50.818;4.344;2023-09-18T03:42:39;7.38;;;4.00;;
34725;SDS011;20951;50.818;4.344;2023-09-18T03:45:06;9.48;;;4.40;;
34725;SDS011;20951;50.818;4.344;2023-09-18T03:47:36;7.78;;;4.47;;
34725;SDS011;20951;50.818;4.344;2023-09-18T03:50:09;8.88;;;4.70;;
34725;SDS011;20951;50.818;4.344;2023-09-18T03:52:37;10.52;;;5.20;;
34725;SDS011;20951;50.818;4.344;2023-09-18T03:55:04;8.80;;;4.72;;
34725;SDS011;20951;50.818;4.344;2023-09-18T03:57:31;8.02;;;4.50;;
34725;SDS011;20951;50.818;4.344;2023-09-18T03:59:57;9.75;;;5.25;;
34725;SDS011;20951;50.818;4.344;2023-09-18T04:02:24;8.90;;;4.65;;
34725;SDS011;20951;50.818;4.344;2023-09-18T04:04:51;9.00;;;4.60;;
34725;SDS011;20951;50.818;4.344;2023-09-18T04:07:18;7.68;;;4.40;;
34725;SDS011;20951;50.818;4.344;2023-09-18T04:09:44;7.75;;;4.18;;
34725;SDS011;20951;50.818;4.344;2023-09-18T04:12:11;11.55;;;4.30;;
34725;SDS011;20951;50.818;4.344;2023-09-18T04:14:37;8.40;;;3.97;;
34725;SDS011;20951;50.818;4.344;2023-09-18T04:17:03;8.80;;;3.80;;
34725;SDS011;20951;50.818;4.344;2023-09-18T04:19:29;6.95;;;3.67;;
34725;SDS011;20951;50.818;4.344;2023-09-18T04:21:55;5.43;;;3.05;;
34725;SDS011;20951;50.818;4.344;2023-09-18T04:24:22;5.78;;;2.65;;
34725;SDS011;20951;50.818;4.344;2023-09-18T04:26:50;6.15;;;2.70;;
34725;SDS011;20951;50.818;4.344;2023-09-18T04:29:17;6.60;;;2.63;;
34725;SDS011;20951;50.818;4.344;2023-09-18T04:31:43;4.80;;;2.25;;
34725;SDS011;20951;50.818;4.344;2023-09-18T04:34:10;5.50;;;2.20;;
34725;SDS011;20951;50.818;4.344;2023-09-18T04:36:36;4.82;;;2.15;;
34725;SDS011;20951;50.818;4.344;2023-09-18T04:39:03;5.28;;;1.75;;
34725;SDS011;20951;50.818;4.344;2023-09-18T04:41:30;4.35;;;2.17;;
34725;SDS011;20951;50.818;4.344;2023-09-18T04:43:56;4.40;;;2.00;;
34725;SDS011;20951;50.818;4.344;2023-09-18T04:46:22;5.20;;;1.98;;
34725;SDS011;20951;50.818;4.344;2023-09-18T04:48:49;4.30;;;1.80;;
34725;SDS011;20951;50.818;4.344;2023-09-18T04:51:15;5.03;;;2.20;;
34725;SDS011;20951;50.818;4.344;2023-09-18T04:53:41;4.35;;;1.80;;
34725;SDS011;20951;50.818;4.344;2023-09-18T04:56:08;6.85;;;2.00;;
34725;SDS011;20951;50.818;4.344;2023-09-18T04:58:35;5.55;;;1.63;;
34725;SDS011;20951;50.818;4.344;2023-09-18T05:01:04;4.93;;;1.70;;
34725;SDS011;20951;50.818;4.344;2023-09-18T05:03:33;3.40;;;1.70;;
34725;SDS011;20951;50.818;4.344;2023-09-18T05:06:00;3.70;;;1.50;;
34725;SDS011;20951;50.818;4.344;2023-09-18T05:08:26;5.22;;;1.80;;
34725;SDS011;20951;50.818;4.344;2023-09-18T05:10:52;5.85;;;1.70;;
34725;SDS011;20951;50.818;4.344;2023-09-18T05:13:18;4.35;;;1.70;;
34725;SDS011;20951;50.818;4.344;2023-09-18T05:15:44;5.18;;;2.05;;
34725;SDS011;20951;50.818;4.344;2023-09-18T05:18:10;4.05;;;2.00;;
34725;SDS011;20951;50.818;4.344;2023-09-18T05:20:36;4.97;;;2.00;;
34725;SDS011;20951;50.818;4.344;2023-09-18T05:23:02;4.75;;;2.00;;
34725;SDS011;20951;50.818;4.344;2023-09-18T05:25:28;4.13;;;2.10;;
34725;SDS011;20951;50.818;4.344;2023-09-18T05:27:57;5.30;;;2.00;;
34725;SDS011;20951;50.818;4.344;2023-09-18T05:30:26;4.30;;;2.20;;
34725;SDS011;20951;50.818;4.344;2023-09-18T05:32:56;5.38;;;2.05;;
34725;SDS011;20951;50.818;4.344;2023-09-18T05:35:29;5.72;;;2.33;;
34725;SDS011;20951;50.818;4.344;2023-09-18T05:38:04;5.10;;;2.10;;
34725;SDS011;20951;50.818;4.344;2023-09-18T05:40:31;5.40;;;1.95;;
34725;SDS011;20951;50.818;4.344;2023-09-18T05:42:57;6.68;;;2.25;;
34725;SDS011;20951;50.818;4.344;2023-09-18T05:45:24;4.85;;;2.08;;
34725;SDS011;20951;50.818;4.344;2023-09-18T05:47:51;6.25;;;2.13;;
34725;SDS011;20951;50.818;4.344;2023-09-18T05:50:18;4.57;;;2.10;;
34725;SDS011;20951;50.818;4.344;2023-09-18T05:52:45;5.55;;;2.15;;
34725;SDS011;20951;50.818;4.344;2023-09-18T05:55:12;4.57;;;2.13;;
34725;SDS011;20951;50.818;4.344;2023-09-18T05:57:41;4.13;;;2.20;;
34725;SDS011;20951;50.818;4.344;2023-09-18T06:00:08;7.47;;;2.30;;
34725;SDS011;20951;50.818;4.344;2023-09-18T06:02:38;5.85;;;2.22;;
34725;SDS011;20951;50.818;4.344;2023-09-18T06:05:05;4.95;;;2.10;;
34725;SDS011;20951;50.818;4.344;2023-09-18T06:07:31;8.18;;;2.30;;
34725;SDS011;20951;50.818;4.344;2023-09-18T06:09:58;6.13;;;2.45;;
34725;SDS011;20951;50.818;4.344;2023-09-18T06:12:24;5.32;;;2.33;;
34725;SDS011;20951;50.818;4.344;2023-09-18T06:14:50;9.25;;;2.50;;
34725;SDS011;20951;50.818;4.344;2023-09-18T06:17:17;5.63;;;2.05;;
34725;SDS011;20951;50.818;4.344;2023-09-18T06:19:43;5.40;;;2.60;;
34725;SDS011;20951;50.818;4.344;2023-09-18T06:22:10;7.85;;;2.10;;
34725;SDS011;20951;50.818;4.344;2023-09-18T06:24:37;6.95;;;2.22;;
34725;SDS011;20951;50.818;4.344;2023-09-18T06:27:03;5.03;;;2.35;;
34725;SDS011;20951;50.818;4.344;2023-09-18T06:29:33;5.35;;;2.40;;
34725;SDS011;20951;50.818;4.344;2023-09-18T06:31:59;8.32;;;2.63;;
34725;SDS011;20951;50.818;4.344;2023-09-18T06:34:26;8.27;;;2.60;;
34725;SDS011;20951;50.818;4.344;2023-09-18T06:36:53;6.65;;;2.53;;
34725;SDS011;20951;50.818;4.344;2023-09-18T06:39:19;5.63;;;2.30;;
34725;SDS011;20951;50.818;4.344;2023-09-18T06:41:47;6.15;;;2.33;;
34725;SDS011;20951;50.818;4.344;2023-09-18T06:44:13;7.95;;;2.45;;
34725;SDS011;20951;50.818;4.344;2023-09-18T06:46:41;7.50;;;2.55;;
34725;SDS011;20951;50.818;4.344;2023-09-18T06:49:07;8.82;;;2.70;;
34725;SDS011;20951;50.818;4.344;2023-09-18T06:51:33;5.38;;;2.50;;
34725;SDS011;20951;50.818;4.344;2023-09-18T06:53:59;5.72;;;2.75;;
34725;SDS011;20951;50.818;4.344;2023-09-18T06:56:28;6.82;;;3.10;;
34725;SDS011;20951;50.818;4.344;2023-09-18T06:58:54;7.25;;;2.95;;
34725;SDS011;20951;50.818;4.344;2023-09-18T07:01:20;7.70;;;3.10;;
34725;SDS011;20951;50.818;4.344;2023-09-18T07:03:47;7.22;;;3.42;;
34725;SDS011;20951;50.818;4.344;2023-09-18T07:06:13;5.10;;;3.10;;
34725;SDS011;20951;50.818;4.344;2023-09-18T07:08:42;7.30;;;3.55;;
34725;SDS011;20951;50.818;4.344;2023-09-18T07:11:08;9.30;;;3.47;;
34725;SDS011;20951;50.818;4.344;2023-09-18T07:13:34;6.30;;;3.30;;
34725;SDS011;20951;50.818;4.344;2023-09-18T07:16:03;8.60;;;3.45;;
34725;SDS011;20951;50.818;4.344;2023-09-18T07:18:30;8.10;;;3.13;;
34725;SDS011;20951;50.818;4.344;2023-09-18T07:20:57;10.52;;;3.78;;
34725;SDS011;20951;50.818;4.344;2023-09-18T07:23:23;8.30;;;3.17;;
34725;SDS011;20951;50.818;4.344;2023-09-18T07:25:48;8.68;;;3.08;;
34725;SDS011;20951;50.818;4.344;2023-09-18T07:28:14;7.30;;;3.00;;
34725;SDS011;20951;50.818;4.344;2023-09-18T07:30:44;7.95;;;3.38;;
34725;SDS011;20951;50.818;4.344;2023-09-18T07:33:12;8.57;;;3.20;;
34725;SDS011;20951;50.818;4.344;2023-09-18T07:35:41;6.45;;;3.00;;
34725;SDS011;20951;50.818;4.344;2023-09-18T07:38:07;9.32;;;3.40;;
34725;SDS011;20951;50.818;4.344;2023-09-18T07:40:33;7.57;;;2.70;;
34725;SDS011;20951;50.818;4.344;2023-09-18T07:42:59;7.25;;;2.65;;
34725;SDS011;20951;50.818;4.344;2023-09-18T07:45:25;12.63;;;2.97;;
34725;SDS011;20951;50.818;4.344;2023-09-18T07:47:51;9.63;;;2.55;;
34725;SDS011;20951;50.818;4.344;2023-09-18T07:50:17;8.32;;;2.35;;
34725;SDS011;20951;50.818;4.344;2023-09-18T07:52:43;4.63;;;2.22;;
34725;SDS011;20951;50.818;4.344;2023-09-18T07:55:09;6.00;;;2.28;;
34725;SDS011;20951;50.818;4.344;2023-09-18T07:57:35;4.57;;;2.15;;
34725;SDS011;20951;50.818;4.344;2023-09-18T08:00:02;4.45;;;2.25;;
34725;SDS011;20951;50.818;4.344;2023-09-18T08:02:33;8.95;;;2.60;;
34725;SDS011;20951;50.818;4.344;2023-09-18T08:05:00;6.10;;;2.35;;
34725;SDS011;20951;50.818;4.344;2023-09-18T08:07:27;8.18;;;2.70;;
34725;SDS011;20951;50.818;4.344;2023-09-18T08:09:53;6.28;;;2.60;;
34725;SDS011;20951;50.818;4.344;2023-09-18T08:12:19;7.68;;;3.20;;
34725;SDS011;20951;50.818;4.344;2023-09-18T08:14:45;9.85;;;3.35;;
34725;SDS011;20951;50.818;4.344;2023-09-18T08:17:11;7.60;;;3.65;;
34725;SDS011;20951;50.818;4.344;2023-09-18T08:19:37;12.15;;;4.13;;
34725;SDS011;20951;50.818;4.344;2023-09-18T08:22:05;10.00;;;4.50;;
34725;SDS011;20951;50.818;4.344;2023-09-18T08:24:31;8.00;;;4.47;;
34725;SDS011;20951;50.818;4.344;2023-09-18T08:26:57;8.13;;;4.35;;
34725;SDS011;20951;50.818;4.344;2023-09-18T08:29:23;7.60;;;4.03;;
34725;SDS011;20951;50.818;4.344;2023-09-18T08:31:49;7.95;;;4.28;;
34725;SDS011;20951;50.818;4.344;2023-09-18T08:34:17;9.52;;;4.65;;
34725;SDS011;20951;50.818;4.344;2023-09-18T08:36:43;8.95;;;4.90;;
34725;SDS011;20951;50.818;4.344;2023-09-18T08:39:09;6.47;;;4.32;;
34725;SDS011;20951;50.818;4.344;2023-09-18T08:41:38;11.95;;;4.82;;
34725;SDS011;20951;50.818;4.344;2023-09-18T08:44:08;9.90;;;4.70;;
34725;SDS011;20951;50.818;4.344;2023-09-18T08:46:35;7.75;;;4.05;;
34725;SDS011;20951;50.818;4.344;2023-09-18T08:49:05;11.80;;;4.47;;
34725;SDS011;20951;50.818;4.344;2023-09-18T08:51:37;9.43;;;3.90;;
34725;SDS011;20951;50.818;4.344;2023-09-18T08:54:07;9.05;;;4.15;;
34725;SDS011;20951;50.818;4.344;2023-09-18T08:56:37;8.18;;;4.43;;
34725;SDS011;20951;50.818;4.344;2023-09-18T08:59:07;7.65;;;4.05;;
34725;SDS011;20951;50.818;4.344;2023-09-18T09:01:39;7.05;;;4.10;;
34725;SDS011;20951;50.818;4.344;2023-09-18T09:04:09;11.75;;;4.00;;
34725;SDS011;20951;50.818;4.344;2023-09-18T09:06:43;11.35;;;3.85;;
34725;SDS011;20951;50.818;4.344;2023-09-18T09:09:14;7.10;;;3.75;;
34725;SDS011;20951;50.818;4.344;2023-09-18T09:11:48;10.50;;;3.80;;
34725;SDS011;20951;50.818;4.344;2023-09-18T09:14:18;9.60;;;3.83;;
34725;SDS011;20951;50.818;4.344;2023-09-18T09:16:53;10.05;;;3.75;;
34725;SDS011;20951;50.818;4.344;2023-09-18T09:19:32;9.35;;;4.07;;
34725;SDS011;20951;50.818;4.344;2023-09-18T09:22:07;9.77;;;3.92;;
34725;SDS011;20951;50.818;4.344;2023-09-18T09:24:45;6.60;;;3.67;;
34725;SDS011;20951;50.818;4.344;2023-09-18T09:27:15;9.30;;;3.97;;
34725;SDS011;20951;50.818;4.344;2023-09-18T09:29:58;7.82;;;4.03;;
34725;SDS011;20951;50.818;4.344;2023-09-18T09:32:31;9.63;;;3.80;;
34725;SDS011;20951;50.818;4.344;2023-09-18T09:35:00;7.75;;;4.20;;
34725;SDS011;20951;50.818;4.344;2023-09-18T09:37:32;9.75;;;4.50;;
34725;SDS011;20951;50.818;4.344;2023-09-18T09:40:03;10.73;;;3.75;;
34725;SDS011;20951;50.818;4.344;2023-09-18T09:42:38;9.80;;;4.00;;
34725;SDS011;20951;50.818;4.344;2023-09-18T09:47:41;9.73;;;4.20;;
34725;SDS011;20951;50.818;4.344;2023-09-18T09:50:12;10.32;;;3.90;;
34725;SDS011;20951;50.818;4.344;2023-09-18T09:52:45;10.80;;;3.90;;
34725;SDS011;20951;50.818;4.344;2023-09-18T09:55:18;10.93;;;4.22;;
34725;SDS011;20951;50.818;4.344;2023-09-18T09:57:55;10.85;;;4.47;;
34725;SDS011;20951;50.818;4.344;2023-09-18T10:00:31;10.25;;;5.00;;
34725;SDS011;20951;50.818;4.344;2023-09-18T10:03:09;9.52;;;4.05;;
34725;SDS011;20951;50.818;4.344;2023-09-18T10:05:42;7.28;;;4.07;;
34725;SDS011;20951;50.818;4.344;2023-09-18T10:08:16;10.35;;;4.35;;
34725;SDS011;20951;50.818;4.344;2023-09-18T10:10:47;9.02;;;4.15;;
34725;SDS011;20951;50.818;4.344;2023-09-18T10:15:58;9.55;;;3.67;;
34725;SDS011;20951;50.818;4.344;2023-09-18T10:18:30;8.20;;;4.00;;
34725;SDS011;20951;50.818;4.344;2023-09-18T10:21:18;8.95;;;4.03;;
34725;SDS011;20951;50.818;4.344;2023-09-18T10:26:24;9.00;;;4.07;;
34725;SDS011;20951;50.818;4.344;2023-09-18T10:28:55;5.55;;;3.70;;
34725;SDS011;20951;50.818;4.344;2023-09-18T10:31:28;8.98;;;4.15;;
34725;SDS011;20951;50.818;4.344;2023-09-18T10:34:00;8.27;;;3.90;;
34725;SDS011;20951;50.818;4.344;2023-09-18T10:36:30;8.82;;;3.83;;
34725;SDS011;20951;50.818;4.344;2023-09-18T10:39:01;10.23;;;4.57;;
34725;SDS011;20951;50.818;4.344;2023-09-18T10:41:33;8.10;;;4.03;;
34725;SDS011;20951;50.818;4.344;2023-09-18T10:44:04;8.00;;;3.67;;
34725;SDS011;20951;50.818;4.344;2023-09-18T10:46:34;7.85;;;3.97;;
34725;SDS011;20951;50.818;4.344;2023-09-18T10:49:11;8.18;;;3.65;;
34725;SDS011;20951;50.818;4.344;2023-09-18T10:51:41;10.60;;;3.55;;
34725;SDS011;20951;50.818;4.344;2023-09-18T10:54:13;6.40;;;2.80;;
34725;SDS011;20951;50.818;4.344;2023-09-18T10:56:43;6.72;;;2.90;;
34725;SDS011;20951;50.818;4.344;2023-09-18T10:59:14;6.72;;;2.80;;
34725;SDS011;20951;50.818;4.344;2023-09-18T11:01:43;9.23;;;3.30;;
34725;SDS011;20951;50.818;4.344;2023-09-18T11:04:19;7.82;;;2.65;;
34725;SDS011;20951;50.818;4.344;2023-09-18T11:09:24;5.63;;;2.47;;
34725;SDS011;20951;50.818;4.344;2023-09-18T11:22:58;4.82;;;2.45;;
34725;SDS011;20951;50.818;4.344;2023-09-18T11:25:43;5.68;;;2.50;;
34725;SDS011;20951;50.818;4.344;2023-09-18T11:28:23;4.93;;;2.30;;
34725;SDS011;20951;50.818;4.344;2023-09-18T11:30:54;6.38;;;2.53;;
34725;SDS011;20951;50.818;4.344;2023-09-18T11:33:31;7.18;;;2.45;;
34725;SDS011;20951;50.818;4.344;2023-09-18T11:36:03;6.68;;;2.83;;
34725;SDS011;20951;50.818;4.344;2023-09-18T11:41:28;9.93;;;2.67;;
34725;SDS011;20951;50.818;4.344;2023-09-18T11:46:45;5.95;;;2.60;;
34725;SDS011;20951;50.818;4.344;2023-09-18T11:49:19;7.28;;;2.90;;
34725;SDS011;20951;50.818;4.344;2023-09-18T11:51:53;5.18;;;2.13;;
34725;SDS011;20951;50.818;4.344;2023-09-18T11:54:26;5.50;;;2.40;;
34725;SDS011;20951;50.818;4.344;2023-09-18T11:56:56;5.07;;;2.00;;
34725;SDS011;20951;50.818;4.344;2023-09-18T11:59:39;7.93;;;2.35;;
34725;SDS011;20951;50.818;4.344;2023-09-18T12:02:30;6.60;;;2.40;;
34725;SDS011;20951;50.818;4.344;2023-09-18T12:05:10;4.40;;;2.15;;
34725;SDS011;20951;50.818;4.344;2023-09-18T12:07:40;4.60;;;2.03;;
34725;SDS011;20951;50.818;4.344;2023-09-18T12:10:14;6.28;;;2.17;;
34725;SDS011;20951;50.818;4.344;2023-09-18T12:12:44;5.22;;;2.05;;
34725;SDS011;20951;50.818;4.344;2023-09-18T12:15:13;7.65;;;2.38;;
34725;SDS011;20951;50.818;4.344;2023-09-18T12:17:45;6.32;;;1.88;;
34725;SDS011;20951;50.818;4.344;2023-09-18T12:20:15;5.28;;;2.22;;
34725;SDS011;20951;50.818;4.344;2023-09-18T12:22:47;6.10;;;2.20;;
34725;SDS011;20951;50.818;4.344;2023-09-18T12:25:17;5.18;;;1.90;;
34725;SDS011;20951;50.818;4.344;2023-09-18T12:27:52;5.68;;;2.25;;
34725;SDS011;20951;50.818;4.344;2023-09-18T12:30:21;4.97;;;1.98;;
34725;SDS011;20951;50.818;4.344;2023-09-18T12:32:50;4.53;;;1.88;;
34725;SDS011;20951;50.818;4.344;2023-09-18T12:35:17;6.32;;;2.40;;
34725;SDS011;20951;50.818;4.344;2023-09-18T12:37:46;5.18;;;2.10;;
34725;SDS011;20951;50.818;4.344;2023-09-18T12:40:22;6.68;;;2.28;;
34725;SDS011;20951;50.818;4.344;2023-09-18T12:42:48;6.22;;;2.28;;
34725;SDS011;20951;50.818;4.344;2023-09-18T12:45:15;6.32;;;2.20;;
34725;SDS011;20951;50.818;4.344;2023-09-18T12:47:42;7.32;;;2.13;;
34725;SDS011;20951;50.818;4.344;2023-09-18T12:50:09;5.68;;;1.92;;
34725;SDS011;20951;50.818;4.344;2023-09-18T12:52:38;8.05;;;1.98;;
34725;SDS011;20951;50.818;4.344;2023-09-18T12:55:04;4.90;;;1.80;;
34725;SDS011;20951;50.818;4.344;2023-09-18T12:57:32;6.88;;;1.85;;
34725;SDS011;20951;50.818;4.344;2023-09-18T12:59:58;5.70;;;1.88;;
34725;SDS011;20951;50.818;4.344;2023-09-18T13:02:25;4.82;;;1.95;;
34725;SDS011;20951;50.818;4.344;2023-09-18T13:04:52;4.57;;;1.80;;
34725;SDS011;20951;50.818;4.344;2023-09-18T13:07:22;4.57;;;1.55;;
34725;SDS011;20951;50.818;4.344;2023-09-18T13:09:58;4.35;;;1.63;;
34725;SDS011;20951;50.818;4.344;2023-09-18T13:12:38;7.50;;;1.80;;
34725;SDS011;20951;50.818;4.344;2023-09-18T13:15:07;4.38;;;1.67;;
34725;SDS011;20951;50.818;4.344;2023-09-18T13:17:46;5.60;;;1.80;;
34725;SDS011;20951;50.818;4.344;2023-09-18T13:20:17;4.85;;;1.75;;
34725;SDS011;20951;50.818;4.344;2023-09-18T13:22:49;5.13;;;1.80;;
34725;SDS011;20951;50.818;4.344;2023-09-18T13:25:23;3.83;;;1.60;;
34725;SDS011;20951;50.818;4.344;2023-09-18T13:27:53;5.87;;;1.80;;
34725;SDS011;20951;50.818;4.344;2023-09-18T13:30:22;7.15;;;1.92;;
34725;SDS011;20951;50.818;4.344;2023-09-18T13:32:51;6.00;;;2.35;;
34725;SDS011;20951;50.818;4.344;2023-09-18T13:35:35;2.80;;;1.52;;
34725;SDS011;20951;50.818;4.344;2023-09-18T13:38:05;5.45;;;1.73;;
34725;SDS011;20951;50.818;4.344;2023-09-18T13:40:36;6.25;;;2.20;;
34725;SDS011;20951;50.818;4.344;2023-09-18T13:43:08;6.53;;;1.65;;
34725;SDS011;20951;50.818;4.344;2023-09-18T13:45:37;4.68;;;1.77;;
34725;SDS011;20951;50.818;4.344;2023-09-18T13:48:07;7.53;;;1.98;;
34725;SDS011;20951;50.818;4.344;2023-09-18T13:50:37;5.32;;;1.95;;
34725;SDS011;20951;50.818;4.344;2023-09-18T13:53:07;3.67;;;1.85;;
34725;SDS011;20951;50.818;4.344;2023-09-18T13:55:36;4.32;;;1.90;;
34725;SDS011;20951;50.818;4.344;2023-09-18T13:58:05;4.50;;;2.10;;
34725;SDS011;20951;50.818;4.344;2023-09-18T14:00:34;4.28;;;1.65;;
34725;SDS011;20951;50.818;4.344;2023-09-18T14:03:04;4.28;;;1.85;;
34725;SDS011;20951;50.818;4.344;2023-09-18T14:05:33;5.70;;;1.92;;
34725;SDS011;20951;50.818;4.344;2023-09-18T14:08:02;5.68;;;1.80;;
34725;SDS011;20951;50.818;4.344;2023-09-18T14:10:32;5.82;;;1.90;;
34725;SDS011;20951;50.818;4.344;2023-09-18T14:13:01;7.03;;;1.95;;
34725;SDS011;20951;50.818;4.344;2023-09-18T14:15:31;6.40;;;1.95;;
34725;SDS011;20951;50.818;4.344;2023-09-18T14:18:00;4.28;;;1.98;;
34725;SDS011;20951;50.818;4.344;2023-09-18T14:20:30;7.03;;;2.10;;
34725;SDS011;20951;50.818;4.344;2023-09-18T14:23:00;4.78;;;2.03;;
34725;SDS011;20951;50.818;4.344;2023-09-18T14:25:31;5.07;;;2.17;;
34725;SDS011;20951;50.818;4.344;2023-09-18T14:28:01;5.50;;;2.13;;
34725;SDS011;20951;50.818;4.344;2023-09-18T14:30:30;6.07;;;2.20;;
34725;SDS011;20951;50.818;4.344;2023-09-18T14:33:00;7.85;;;2.22;;
34725;SDS011;20951;50.818;4.344;2023-09-18T14:35:30;7.13;;;2.58;;
34725;SDS011;20951;50.818;4.344;2023-09-18T14:38:01;12.75;;;3.05;;
34725;SDS011;20951;50.818;4.344;2023-09-18T14:40:31;10.15;;;3.72;;
34725;SDS011;20951;50.818;4.344;2023-09-18T14:43:01;10.35;;;3.50;;
34725;SDS011;20951;50.818;4.344;2023-09-18T14:45:30;9.70;;;3.47;;
34725;SDS011;20951;50.818;4.344;2023-09-18T14:48:00;9.02;;;3.38;;
34725;SDS011;20951;50.818;4.344;2023-09-18T14:50:30;7.85;;;2.92;;
34725;SDS011;20951;50.818;4.344;2023-09-18T14:53:00;6.30;;;2.90;;
34725;SDS011;20951;50.818;4.344;2023-09-18T14:55:32;8.77;;;3.13;;
34725;SDS011;20951;50.818;4.344;2023-09-18T14:58:03;7.03;;;3.13;;
34725;SDS011;20951;50.818;4.344;2023-09-18T15:00:33;7.80;;;3.03;;
34725;SDS011;20951;50.818;4.344;2023-09-18T15:03:03;5.07;;;2.65;;
34725;SDS011;20951;50.818;4.344;2023-09-18T15:05:33;5.05;;;2.88;;
34725;SDS011;20951;50.818;4.344;2023-09-18T15:08:03;6.18;;;2.47;;
34725;SDS011;20951;50.818;4.344;2023-09-18T15:10:33;4.35;;;2.88;;
34725;SDS011;20951;50.818;4.344;2023-09-18T15:13:03;5.47;;;2.80;;
34725;SDS011;20951;50.818;4.344;2023-09-18T15:15:32;5.15;;;3.00;;
34725;SDS011;20951;50.818;4.344;2023-09-18T15:18:03;5.43;;;2.60;;
34725;SDS011;20951;50.818;4.344;2023-09-18T15:20:33;7.20;;;2.63;;
34725;SDS011;20951;50.818;4.344;2023-09-18T15:23:05;5.80;;;2.80;;
34725;SDS011;20951;50.818;4.344;2023-09-18T15:25:35;4.88;;;2.20;;